Time;durP1;ratioP1;P1;durP2;ratioP2;P2;SDS_P1;SDS_P2;PMS_P1;PMS_P2;Temp;Humidity;BMP_temperature;BMP_pressure;BME280_temperature;BME280_humidity;BME280_pressure;Samples;Min_cycle;Max_cycle;Signal;HPM_P1;HPM_P2
2022/10/13 00:01:22;;;;;;;15.25;5.97;;;10.40;99.90;;;;;;5093300;28;20381;-44
2022/10/13 00:03:48;;;;;;;14.30;6.38;;;10.40;99.90;;;;;;5093567;28;20040;-42
2022/10/13 00:06:17;;;;;;;13.80;6.30;;;10.40;99.90;;;;;;5093889;28;20023;-40
2022/10/13 00:08:43;;;;;;;16.50;6.82;;;10.30;99.90;;;;;;5093623;28;20073;-43
2022/10/13 00:11:20;;;;;;;11.70;6.30;;;10.30;99.90;;;;;;5078311;28;20029;-41
2022/10/13 00:13:47;;;;;;;16.20;6.93;;;10.30;99.90;;;;;;5084721;28;20127;-41
2022/10/13 00:16:15;;;;;;;14.38;6.32;;;10.30;99.90;;;;;;5092213;28;20020;-42
2022/10/13 00:18:41;;;;;;;11.60;5.45;;;10.30;99.90;;;;;;5093466;28;20028;-42
2022/10/13 00:21:09;;;;;;;14.43;6.03;;;10.30;99.90;;;;;;5093601;28;20027;-42
2022/10/13 00:23:35;;;;;;;11.52;6.40;;;10.20;99.90;;;;;;5093179;28;20024;-43
2022/10/13 00:26:03;;;;;;;9.43;6.38;;;10.20;99.90;;;;;;5093215;28;20023;-42
2022/10/13 00:28:29;;;;;;;14.38;5.93;;;10.10;99.90;;;;;;5093251;28;20027;-41
2022/10/13 00:30:54;;;;;;;10.43;5.55;;;10.10;99.90;;;;;;5093188;28;20031;-41
2022/10/13 00:33:20;;;;;;;10.15;5.75;;;10.00;99.90;;;;;;5092400;28;20047;-42
2022/10/13 00:35:47;;;;;;;13.48;5.68;;;9.90;99.90;;;;;;5093264;28;20020;-44
2022/10/13 00:38:17;;;;;;;20.08;7.15;;;9.90;99.90;;;;;;5093149;28;20430;-42
2022/10/13 00:40:47;;;;;;;10.48;5.40;;;9.90;99.90;;;;;;5084801;28;20025;-46
2022/10/13 00:43:16;;;;;;;11.50;6.45;;;9.90;99.90;;;;;;5078337;28;20108;-42
2022/10/13 00:45:42;;;;;;;11.52;5.80;;;9.90;99.90;;;;;;5080587;28;20021;-44
2022/10/13 00:48:07;;;;;;;13.68;5.90;;;9.90;99.90;;;;;;5089953;28;20031;-43
2022/10/13 00:50:38;;;;;;;10.15;5.80;;;9.90;99.90;;;;;;5073941;28;20436;-40
2022/10/13 00:53:04;;;;;;;9.82;5.95;;;9.80;99.90;;;;;;5089963;28;20032;-41
2022/10/13 00:55:32;;;;;;;7.72;5.47;;;9.80;99.90;;;;;;5092580;28;20028;-41
2022/10/13 00:58:00;;;;;;;10.05;5.88;;;9.70;99.90;;;;;;5092662;28;20095;-44
2022/10/13 01:00:27;;;;;;;13.43;5.70;;;9.60;99.90;;;;;;5092436;28;20020;-42
2022/10/13 01:02:52;;;;;;;11.02;6.72;;;9.60;99.90;;;;;;5090811;28;20047;-42
2022/10/13 01:05:20;;;;;;;12.13;6.85;;;9.50;99.90;;;;;;5092858;28;20066;-42
2022/10/13 01:07:48;;;;;;;11.15;5.68;;;9.50;99.90;;;;;;5091409;28;20085;-44
2022/10/13 01:10:43;;;;;;;10.45;5.63;;;9.40;99.90;;;;;;5092656;28;20024;-45
2022/10/13 01:13:18;;;;;;;15.63;7.70;;;9.40;99.90;;;;;;5072059;28;20480;-42
2022/10/13 01:15:56;;;;;;;14.45;6.10;;;9.40;99.90;;;;;;5092231;28;20024;-40
2022/10/13 01:18:32;;;;;;;15.15;6.45;;;9.40;99.90;;;;;;5088806;28;20034;-41
2022/10/13 01:21:23;;;;;;;10.02;6.07;;;9.40;99.90;;;;;;5076360;28;20036;-42
2022/10/13 01:24:09;;;;;;;;;;;9.30;99.90;;;;;;5091449;28;20031;-40
2022/10/13 01:27:13;;;;;;;12.55;6.05;;;9.20;99.90;;;;;;5092123;28;19997;-41
2022/10/13 01:29:45;;;;;;;13.60;6.00;;;9.10;99.90;;;;;;5090552;28;20376;-42
2022/10/13 01:32:42;;;;;;;11.48;6.57;;;9.00;99.90;;;;;;5091827;28;20089;-42
2022/10/13 01:35:25;;;;;;;6.63;5.70;;;9.00;99.90;;;;;;5092117;28;20024;-43
2022/10/13 01:38:07;;;;;;;12.25;5.85;;;8.90;99.90;;;;;;5092118;28;20534;-41
2022/10/13 01:40:43;;;;;;;13.73;6.28;;;8.90;99.90;;;;;;5091834;28;20024;-42
2022/10/13 01:43:18;;;;;;;12.23;6.15;;;8.90;99.90;;;;;;5091248;28;20106;-42
2022/10/13 01:45:53;;;;;;;11.75;6.10;;;8.80;99.90;;;;;;5091668;28;20447;-43
2022/10/13 01:48:19;;;;;;;12.13;6.57;;;8.80;99.90;;;;;;5088707;28;20024;-43
2022/10/13 01:50:46;;;;;;;11.95;6.60;;;8.80;99.90;;;;;;5073278;28;20039;-44
2022/10/13 01:53:13;;;;;;;14.35;7.88;;;8.80;99.90;;;;;;5082684;28;20023;-43
2022/10/13 01:55:57;;;;;;;9.05;6.68;;;8.80;99.90;;;;;;5091405;28;20024;-42
2022/10/13 01:58:26;;;;;;;11.05;6.68;;;8.80;99.90;;;;;;5091707;28;20099;-42
2022/10/13 02:01:28;;;;;;;18.35;7.80;;;8.80;99.90;;;;;;5081032;28;20118;-41
2022/10/13 02:04:25;;;;;;;14.20;7.18;;;8.80;99.90;;;;;;5071096;28;20100;-42
2022/10/13 02:07:10;;;;;;;9.60;7.35;;;8.70;99.90;;;;;;5064941;28;20056;-42
2022/10/13 02:09:54;;;;;;;17.77;8.10;;;8.80;99.90;;;;;;5060513;28;20495;-41
2022/10/13 02:12:28;;;;;;;15.88;7.35;;;8.80;99.90;;;;;;5060357;28;20135;-42
2022/10/13 02:14:55;;;;;;;13.07;8.45;;;8.80;99.90;;;;;;5059969;28;20391;-42
2022/10/13 02:17:21;;;;;;;13.70;7.43;;;8.90;99.90;;;;;;5059958;28;20485;-42
2022/10/13 02:19:47;;;;;;;17.10;9.20;;;8.90;99.90;;;;;;5061347;28;20341;-44
2022/10/13 02:22:14;;;;;;;23.77;10.32;;;9.00;99.90;;;;;;5066343;28;20025;-44
2022/10/13 02:24:39;;;;;;;12.73;7.70;;;9.10;99.90;;;;;;5059795;28;20036;-42
2022/10/13 02:27:06;;;;;;;14.10;8.60;;;9.20;99.90;;;;;;5061522;28;20036;-44
2022/10/13 02:29:31;;;;;;;23.05;9.98;;;9.30;99.90;;;;;;5060285;28;20374;-43
2022/10/13 02:31:57;;;;;;;23.13;9.60;;;9.50;99.90;;;;;;5059703;28;20027;-42
2022/10/13 02:34:22;;;;;;;17.88;8.00;;;9.60;99.90;;;;;;5061740;28;20040;-42
2022/10/13 02:36:48;;;;;;;18.35;9.00;;;9.70;99.90;;;;;;5067958;28;20056;-41
2022/10/13 02:39:14;;;;;;;21.02;10.27;;;9.80;99.90;;;;;;5070939;28;20416;-42
2022/10/13 02:41:39;;;;;;;17.95;9.65;;;9.90;99.90;;;;;;5069242;28;20028;-42
2022/10/13 02:44:05;;;;;;;19.92;9.70;;;10.00;99.90;;;;;;5071049;28;20100;-41
2022/10/13 02:46:31;;;;;;;20.23;10.23;;;10.20;99.90;;;;;;5070871;28;20418;-42
2022/10/13 02:48:56;;;;;;;23.15;9.45;;;10.40;99.90;;;;;;5070863;28;20020;-42
2022/10/13 02:51:22;;;;;;;18.70;9.20;;;10.50;99.90;;;;;;5074942;28;20024;-42
2022/10/13 02:53:47;;;;;;;17.40;9.75;;;10.60;99.90;;;;;;5086079;28;20031;-41
2022/10/13 02:56:14;;;;;;;22.58;9.45;;;10.60;99.90;;;;;;5094153;28;20032;-41
2022/10/13 02:58:39;;;;;;;22.45;9.57;;;10.60;99.90;;;;;;5095123;28;20052;-42
2022/10/13 03:01:07;;;;;;;19.25;8.68;;;10.70;99.90;;;;;;5094998;28;20705;-43
2022/10/13 03:03:33;;;;;;;18.55;9.70;;;10.70;99.90;;;;;;5093191;28;20107;-41
2022/10/13 03:05:59;;;;;;;22.88;9.57;;;10.70;99.90;;;;;;5094692;28;20103;-42
2022/10/13 03:08:25;;;;;;;21.33;9.65;;;10.70;99.90;;;;;;5094847;28;20028;-42
2022/10/13 03:10:51;;;;;;;18.85;9.45;;;10.80;99.90;;;;;;5095064;28;20488;-40
2022/10/13 03:13:16;;;;;;;23.25;9.65;;;10.80;99.90;;;;;;5067211;28;20040;-41
2022/10/13 03:15:42;;;;;;;22.45;10.05;;;10.80;99.90;;;;;;5062827;28;20136;-40
2022/10/13 03:18:07;;;;;;;20.85;9.75;;;10.80;99.90;;;;;;5059849;28;20044;-43
2022/10/13 03:20:33;;;;;;;19.50;10.23;;;10.80;99.90;;;;;;5062771;28;20095;-41
2022/10/13 03:22:58;;;;;;;24.25;9.32;;;10.80;99.90;;;;;;5078902;28;20090;-43
2022/10/13 03:25:24;;;;;;;22.45;9.85;;;10.80;99.90;;;;;;5072874;28;20107;-42
2022/10/13 03:27:49;;;;;;;21.15;10.27;;;10.80;99.90;;;;;;5056871;28;20025;-41
2022/10/13 03:30:15;;;;;;;25.40;9.60;;;10.80;99.90;;;;;;5054430;28;20104;-40
2022/10/13 03:32:40;;;;;;;22.80;9.88;;;10.80;99.90;;;;;;5053990;28;20040;-42
2022/10/13 03:35:06;;;;;;;24.27;11.10;;;10.80;99.90;;;;;;5053732;28;20029;-42
2022/10/13 03:37:32;;;;;;;21.23;9.95;;;10.80;99.90;;;;;;5054098;28;20474;-41
2022/10/13 03:39:58;;;;;;;21.52;11.38;;;10.80;99.90;;;;;;5054371;28;20029;-45
2022/10/13 03:42:23;;;;;;;19.50;10.73;;;10.80;99.90;;;;;;5066595;28;20028;-45
2022/10/13 03:44:49;;;;;;;23.02;9.52;;;10.80;99.90;;;;;;5066549;28;20029;-42
2022/10/13 03:47:14;;;;;;;23.70;11.20;;;10.80;99.90;;;;;;5055737;28;20021;-44
2022/10/13 03:49:40;;;;;;;21.25;10.23;;;10.80;99.90;;;;;;5056226;28;20063;-43
2022/10/13 03:52:05;;;;;;;26.67;11.15;;;10.70;99.90;;;;;;5069040;28;20124;-43
2022/10/13 03:54:31;;;;;;;23.35;10.35;;;10.70;99.90;;;;;;5066602;28;20024;-41
2022/10/13 03:56:56;;;;;;;27.55;10.82;;;10.70;99.90;;;;;;5061033;28;20435;-43
2022/10/13 03:59:22;;;;;;;26.20;10.88;;;10.70;99.90;;;;;;5060180;28;20040;-43
2022/10/13 04:01:47;;;;;;;19.23;10.88;;;10.70;99.90;;;;;;5070229;28;20029;-45
2022/10/13 04:04:13;;;;;;;24.83;11.30;;;10.80;99.90;;;;;;5073585;28;20108;-42
2022/10/13 04:06:38;;;;;;;25.05;12.38;;;10.80;99.90;;;;;;5073296;28;20481;-42
2022/10/13 04:09:04;;;;;;;20.58;11.35;;;10.80;99.90;;;;;;5073589;28;20029;-42
2022/10/13 04:11:30;;;;;;;26.85;12.18;;;10.80;99.90;;;;;;5073024;28;20086;-47
2022/10/13 04:13:56;;;;;;;34.38;11.77;;;10.80;99.90;;;;;;5073276;28;20041;-42
2022/10/13 04:16:25;;;;;;;26.70;11.38;;;10.80;99.90;;;;;;5073302;28;20101;-43
2022/10/13 04:18:59;;;;;;;23.10;12.40;;;10.80;99.90;;;;;;5070257;28;20470;-43
2022/10/13 04:21:26;;;;;;;31.95;13.45;;;10.80;99.90;;;;;;5077887;28;20420;-43
2022/10/13 04:23:56;;;;;;;30.33;12.73;;;10.80;99.90;;;;;;5089461;28;20615;-41
2022/10/13 04:26:22;;;;;;;26.23;12.23;;;10.80;99.90;;;;;;5093977;28;20031;-48
2022/10/13 04:28:50;;;;;;;22.90;11.98;;;10.80;99.90;;;;;;5093703;28;20051;-43
2022/10/13 04:31:16;;;;;;;24.83;13.07;;;10.80;99.90;;;;;;5093047;28;20024;-40
2022/10/13 04:33:43;;;;;;;31.30;13.93;;;10.90;99.90;;;;;;5093161;28;20335;-41
2022/10/13 04:36:10;;;;;;;24.08;12.40;;;10.80;99.90;;;;;;5092841;28;20077;-41
2022/10/13 04:38:36;;;;;;;20.20;13.10;;;10.90;99.90;;;;;;5091931;28;20021;-42
2022/10/13 04:41:03;;;;;;;25.58;12.75;;;10.90;99.90;;;;;;5093017;28;20024;-41
2022/10/13 04:43:29;;;;;;;27.50;13.57;;;10.90;99.90;;;;;;5092980;28;20024;-43
2022/10/13 04:46:00;;;;;;;26.60;12.05;;;10.90;99.90;;;;;;5093118;28;20495;-42
2022/10/13 04:48:26;;;;;;;24.27;13.80;;;10.90;99.90;;;;;;5092920;28;20031;-41
2022/10/13 04:51:19;;;;;;;27.98;14.50;;;10.90;99.90;;;;;;5086318;28;20472;-43
2022/10/13 04:53:45;;;;;;;24.35;13.45;;;10.90;99.90;;;;;;5080873;28;20068;-43
2022/10/13 04:56:13;;;;;;;25.80;13.57;;;10.90;99.90;;;;;;5092825;28;20027;-42
2022/10/13 04:58:40;;;;;;;29.63;13.82;;;11.00;99.90;;;;;;5092898;28;20035;-42
2022/10/13 05:01:07;;;;;;;25.23;15.00;;;11.00;99.90;;;;;;5092736;28;20020;-43
2022/10/13 05:03:33;;;;;;;24.10;13.75;;;11.00;99.90;;;;;;5074556;28;20515;-43
2022/10/13 05:05:59;;;;;;;29.42;14.43;;;11.00;99.90;;;;;;5072627;28;20056;-44
2022/10/13 05:08:25;;;;;;;30.25;14.98;;;11.00;99.90;;;;;;5072502;28;20112;-40
2022/10/13 05:10:59;;;;;;;28.85;15.10;;;11.00;99.90;;;;;;5072371;28;20035;-41
2022/10/13 05:13:26;;;;;;;29.38;15.00;;;11.10;99.90;;;;;;5071828;28;20047;-42
2022/10/13 05:15:52;;;;;;;30.80;14.43;;;11.10;99.90;;;;;;5072316;28;20062;-42
2022/10/13 05:18:18;;;;;;;35.80;15.13;;;11.10;99.90;;;;;;5070419;28;20434;-43
2022/10/13 05:20:44;;;;;;;24.63;14.93;;;11.10;99.90;;;;;;5076230;28;20099;-42
2022/10/13 05:23:09;;;;;;;32.03;15.25;;;11.00;99.90;;;;;;5083522;28;20365;-42
2022/10/13 05:25:36;;;;;;;37.95;16.33;;;11.00;99.90;;;;;;5092369;28;20028;-42
2022/10/13 05:28:03;;;;;;;26.73;15.48;;;11.00;99.90;;;;;;5092149;28;20032;-42
2022/10/13 05:30:29;;;;;;;29.58;15.13;;;11.00;99.90;;;;;;5092145;28;20036;-42
2022/10/13 05:32:54;;;;;;;33.30;16.33;;;11.00;99.90;;;;;;5091643;28;20024;-41
2022/10/13 05:35:20;;;;;;;29.15;14.75;;;11.00;99.90;;;;;;5091991;28;20024;-44
2022/10/13 05:37:45;;;;;;;35.33;16.10;;;11.00;99.90;;;;;;5092505;28;20051;-43
2022/10/13 05:40:11;;;;;;;29.40;15.73;;;10.90;99.90;;;;;;5092102;28;20063;-41
2022/10/13 05:42:37;;;;;;;26.55;15.27;;;10.80;99.90;;;;;;5091535;28;20051;-42
2022/10/13 05:45:03;;;;;;;27.33;15.68;;;10.80;99.90;;;;;;5092040;28;20063;-43
2022/10/13 05:47:28;;;;;;;24.27;14.75;;;10.70;99.90;;;;;;5092055;28;20043;-42
2022/10/13 05:49:54;;;;;;;36.63;15.00;;;10.70;99.90;;;;;;5087002;28;20063;-43
2022/10/13 05:52:22;;;;;;;33.55;14.88;;;10.70;99.90;;;;;;5082059;28;20495;-42
2022/10/13 05:54:52;;;;;;;25.90;14.80;;;10.70;99.90;;;;;;5091610;28;20483;-42
2022/10/13 05:57:26;;;;;;;28.23;15.55;;;10.60;99.90;;;;;;5091570;28;20563;-42
2022/10/13 05:59:56;;;;;;;34.05;16.70;;;10.60;99.90;;;;;;5091362;28;20146;-43
2022/10/13 06:02:26;;;;;;;32.28;17.20;;;10.60;99.90;;;;;;5091243;28;20058;-43
2022/10/13 06:04:55;;;;;;;30.85;15.52;;;10.60;99.90;;;;;;5091690;28;20024;-41
2022/10/13 06:07:21;;;;;;;35.28;17.25;;;10.60;99.90;;;;;;5091547;28;20031;-40
2022/10/13 06:09:47;;;;;;;31.77;16.23;;;10.60;99.90;;;;;;5091330;28;20032;-41
2022/10/13 06:12:12;;;;;;;32.83;17.00;;;10.60;99.90;;;;;;5090919;28;20046;-41
2022/10/13 06:14:38;;;;;;;32.53;16.95;;;10.60;99.90;;;;;;5091386;28;20034;-42
2022/10/13 06:17:03;;;;;;;30.25;16.95;;;10.60;99.90;;;;;;5091484;28;20035;-42
2022/10/13 06:19:29;;;;;;;38.75;17.92;;;10.60;99.90;;;;;;5091334;28;20082;-42
2022/10/13 06:21:54;;;;;;;29.65;16.73;;;10.60;99.90;;;;;;5078706;28;20103;-43
2022/10/13 06:24:20;;;;;;;33.67;17.58;;;10.70;99.90;;;;;;5090903;28;20016;-42
2022/10/13 06:26:46;;;;;;;37.92;19.50;;;10.80;99.90;;;;;;5090106;28;20028;-44
2022/10/13 06:29:11;;;;;;;30.17;17.08;;;10.70;99.90;;;;;;5090476;28;20085;-42
2022/10/13 06:31:36;;;;;;;34.60;18.13;;;10.70;99.90;;;;;;5090923;28;20104;-41
2022/10/13 06:34:02;;;;;;;38.90;18.20;;;10.80;99.90;;;;;;5085717;28;20040;-41
2022/10/13 06:36:28;;;;;;;31.85;18.00;;;10.80;99.90;;;;;;5050994;28;20047;-41
2022/10/13 06:38:53;;;;;;;37.47;18.92;;;10.70;99.90;;;;;;5050977;28;20083;-43
2022/10/13 06:41:19;;;;;;;41.53;20.23;;;10.70;99.90;;;;;;5050428;28;20371;-41
2022/10/13 06:43:44;;;;;;;33.47;17.50;;;10.70;99.90;;;;;;5049626;28;20022;-42
2022/10/13 06:46:11;;;;;;;32.05;16.77;;;10.80;99.90;;;;;;5050756;28;20040;-41
2022/10/13 06:48:37;;;;;;;37.17;19.92;;;10.90;99.90;;;;;;5050859;28;20052;-41
2022/10/13 06:51:05;;;;;;;35.92;18.90;;;10.90;99.90;;;;;;5052028;28;20068;-41
2022/10/13 06:53:30;;;;;;;43.85;18.35;;;10.90;99.90;;;;;;5082120;28;20369;-41
2022/10/13 06:56:00;;;;;;;30.20;17.92;;;11.00;99.90;;;;;;5090860;28;20032;-41
2022/10/13 06:58:26;;;;;;;33.87;18.37;;;11.10;99.90;;;;;;5088076;28;20028;-42
2022/10/13 07:00:52;;;;;;;26.70;16.92;;;11.20;99.90;;;;;;5088940;28;20262;-43
2022/10/13 07:03:18;;;;;;;33.40;18.98;;;11.30;99.90;;;;;;5079030;28;20149;-43
2022/10/13 07:05:43;;;;;;;30.67;18.40;;;11.40;99.90;;;;;;5089479;28;20020;-41
2022/10/13 07:08:09;;;;;;;35.20;18.63;;;11.50;99.90;;;;;;5089356;28;20032;-41
2022/10/13 07:10:37;;;;;;;30.23;16.67;;;11.60;99.90;;;;;;5089808;28;20028;-41
2022/10/13 07:13:02;;;;;;;38.60;18.02;;;11.70;99.90;;;;;;5088985;28;20099;-41
2022/10/13 07:15:28;;;;;;;33.92;17.20;;;11.80;99.90;;;;;;5071994;28;20025;-42
2022/10/13 07:17:54;;;;;;;31.63;16.60;;;11.80;99.90;;;;;;5069192;28;20068;-41
2022/10/13 07:20:20;;;;;;;31.50;16.55;;;11.90;99.90;;;;;;5067815;28;20024;-41
2022/10/13 07:22:46;;;;;;;32.75;17.05;;;11.90;99.90;;;;;;5067516;28;20127;-43
2022/10/13 07:25:12;;;;;;;25.83;15.52;;;12.00;99.90;;;;;;5068748;28;20162;-42
2022/10/13 07:27:39;;;;;;;30.45;17.45;;;12.00;99.90;;;;;;5068219;28;20035;-41
2022/10/13 07:30:06;;;;;;;32.65;17.02;;;11.90;99.90;;;;;;5067059;28;20426;-41
2022/10/13 07:32:31;;;;;;;30.58;16.77;;;11.90;99.90;;;;;;5076497;28;20029;-42
2022/10/13 07:34:57;;;;;;;27.45;16.15;;;11.90;99.90;;;;;;5085434;28;20103;-42
2022/10/13 07:37:23;;;;;;;28.60;16.35;;;11.90;99.90;;;;;;5088658;28;20024;-43
2022/10/13 07:39:49;;;;;;;30.63;16.08;;;11.90;99.90;;;;;;5089309;28;20023;-43
2022/10/13 07:42:14;;;;;;;26.48;15.98;;;11.90;99.90;;;;;;5091421;28;20377;-45
2022/10/13 07:44:40;;;;;;;34.60;16.60;;;11.90;99.90;;;;;;5091121;28;20071;-42
2022/10/13 07:47:05;;;;;;;30.38;16.95;;;11.90;99.90;;;;;;5086540;28;20032;-42
2022/10/13 07:49:31;;;;;;;36.05;18.17;;;11.90;99.90;;;;;;5072285;28;20033;-42
2022/10/13 07:51:56;;;;;;;35.80;15.05;;;12.00;99.90;;;;;;5072955;28;20384;-42
2022/10/13 07:54:22;;;;;;;27.45;16.10;;;12.00;99.90;;;;;;5076061;28;20046;-43
2022/10/13 07:56:51;;;;;;;29.48;15.45;;;12.10;99.90;;;;;;5086327;28;20694;-43
2022/10/13 07:59:17;;;;;;;33.60;16.15;;;12.20;99.90;;;;;;5081149;28;20469;-42
2022/10/13 08:01:42;;;;;;;24.42;16.63;;;12.30;99.90;;;;;;5090920;28;20020;-43
2022/10/13 08:04:08;;;;;;;32.08;16.70;;;12.30;99.90;;;;;;5092380;28;20451;-48
2022/10/13 08:06:33;;;;;;;31.15;16.35;;;12.40;99.90;;;;;;5093641;28;20028;-47
2022/10/13 08:08:59;;;;;;;38.80;15.68;;;12.40;99.90;;;;;;5093665;28;20028;-47
2022/10/13 08:11:25;;;;;;;24.98;15.52;;;12.50;99.90;;;;;;5092832;28;20103;-47
2022/10/13 08:13:51;;;;;;;28.85;15.00;;;12.60;99.90;;;;;;5093330;28;20590;-50
2022/10/13 08:16:17;;;;;;;28.90;15.85;;;12.70;99.90;;;;;;5093116;28;20024;-47
2022/10/13 08:18:44;;;;;;;33.00;14.90;;;12.80;99.90;;;;;;5093323;28;20020;-49
2022/10/13 08:21:13;;;;;;;22.00;14.20;;;12.80;99.90;;;;;;5092967;28;20021;-47
2022/10/13 08:23:38;;;;;;;27.90;14.05;;;13.00;99.90;;;;;;5093556;28;20690;-48
2022/10/13 08:26:04;;;;;;;31.00;14.20;;;13.20;99.90;;;;;;5093785;28;20028;-47
2022/10/13 08:28:30;;;;;;;25.88;14.15;;;13.20;99.90;;;;;;5083833;28;20020;-50
2022/10/13 08:30:56;;;;;;;29.85;14.85;;;13.20;99.90;;;;;;5077078;28;20024;-49
2022/10/13 08:33:23;;;;;;;27.42;13.40;;;13.30;99.90;;;;;;5073011;28;20025;-48
2022/10/13 08:35:49;;;;;;;24.25;12.80;;;13.40;99.90;;;;;;5072973;28;20032;-49
2022/10/13 08:38:14;;;;;;;25.05;13.50;;;13.60;99.90;;;;;;5073369;28;20087;-47
2022/10/13 08:40:46;;;;;;;23.38;13.45;;;13.90;99.90;;;;;;5077797;28;20020;-47
2022/10/13 08:43:14;;;;;;;25.70;14.60;;;13.80;99.90;;;;;;5092994;28;20091;-48
2022/10/13 08:45:40;;;;;;;23.38;13.23;;;13.90;99.90;;;;;;5093371;28;20526;-48
2022/10/13 08:48:16;;;;;;;26.80;12.70;;;13.90;99.90;;;;;;5093109;28;20085;-49
2022/10/13 08:50:44;;;;;;;24.15;13.43;;;14.10;99.90;;;;;;5084423;28;20029;-49
2022/10/13 08:53:29;;;;;;;21.88;12.80;;;14.40;99.90;;;;;;5080297;28;20047;-51
2022/10/13 08:56:03;;;;;;;14.77;10.48;;;14.70;99.90;;;;;;5093156;28;20030;-51
2022/10/13 08:58:32;;;;;;;20.77;12.20;;;15.10;99.90;;;;;;5092840;28;20503;-48
2022/10/13 09:01:17;;;;;;;19.67;12.82;;;15.50;99.90;;;;;;5093187;28;20074;-50
2022/10/13 09:03:48;;;;;;;21.35;11.93;;;15.80;99.90;;;;;;5089197;28;20024;-49
2022/10/13 09:06:20;;;;;;;23.92;11.15;;;17.10;99.90;;;;;;5062389;28;20021;-51
2022/10/13 09:08:53;;;;;;;20.48;11.75;;;17.00;99.90;;;;;;5061582;28;20655;-51
2022/10/13 09:11:19;;;;;;;17.75;10.98;;;17.80;99.90;;;;;;5078430;28;20032;-44
2022/10/13 09:13:44;;;;;;;17.38;12.18;;;17.80;99.90;;;;;;5069369;28;20533;-44
2022/10/13 09:16:10;;;;;;;31.40;13.55;;;17.30;99.90;;;;;;5069839;28;20032;-43
2022/10/13 09:18:36;;;;;;;16.52;10.10;;;17.70;99.90;;;;;;5070247;28;20020;-44
2022/10/13 09:21:17;;;;;;;23.27;10.20;;;18.60;99.90;;;;;;5070688;28;20021;-46
2022/10/13 09:23:43;;;;;;;18.45;9.27;;;19.50;99.00;;;;;;5070790;28;20024;-44
2022/10/13 09:26:19;;;;;;;16.35;8.65;;;20.20;97.50;;;;;;5071179;28;20116;-45
2022/10/13 09:28:45;;;;;;;14.45;9.73;;;20.80;96.00;;;;;;5069838;28;20028;-42
2022/10/13 09:31:26;;;;;;;16.13;9.05;;;21.40;93.40;;;;;;5066133;28;20029;-43
2022/10/13 09:34:17;;;;;;;22.98;8.93;;;20.20;95.20;;;;;;5070046;28;20035;-42
2022/10/13 09:36:57;;;;;;;15.93;8.60;;;20.90;94.80;;;;;;5070068;28;20028;-43
2022/10/13 09:39:23;;;;;;;16.85;9.30;;;21.80;93.90;;;;;;5073324;28;20142;-43
2022/10/13 09:41:49;;;;;;;25.75;9.90;;;22.30;91.40;;;;;;5085045;28;20559;-43
2022/10/13 09:44:26;;;;;;;17.63;8.77;;;21.50;92.10;;;;;;5088496;28;20024;-43
2022/10/13 09:46:54;;;;;;;15.73;8.32;;;21.70;91.30;;;;;;5089532;28;20028;-43
2022/10/13 09:49:29;;;;;;;19.13;7.75;;;22.50;90.00;;;;;;5089473;28;20778;-42
2022/10/13 09:52:05;;;;;;;17.95;9.15;;;22.30;90.50;;;;;;5074070;28;20044;-42
2022/10/13 09:54:41;;;;;;;14.52;8.68;;;21.80;90.40;;;;;;5062633;28;20111;-43
2022/10/13 09:57:30;;;;;;;20.27;9.38;;;21.40;91.00;;;;;;5058821;28;20089;-43
2022/10/13 10:00:20;;;;;;;17.05;10.02;;;21.50;91.30;;;;;;5051990;28;20104;-45
2022/10/13 10:02:52;;;;;;;16.65;8.43;;;21.30;90.80;;;;;;5049275;28;20648;-43
2022/10/13 10:05:45;;;;;;;13.32;8.73;;;21.00;91.90;;;;;;5069017;28;20085;-43
2022/10/13 10:08:21;;;;;;;16.92;9.82;;;21.10;91.20;;;;;;5059171;28;20534;-43
2022/10/13 10:10:46;;;;;;;17.88;10.30;;;20.40;91.80;;;;;;5050363;28;20029;-41
2022/10/13 10:13:13;;;;;;;23.73;10.77;;;20.30;92.00;;;;;;5056464;28;20029;-43
2022/10/13 10:16:01;;;;;;;17.30;9.13;;;19.10;93.80;;;;;;5055745;28;20037;-43
2022/10/13 10:18:57;;;;;;;18.38;8.50;;;18.80;94.80;;;;;;5061606;28;20051;-43
2022/10/13 10:21:46;;;;;;;15.40;9.75;;;18.40;95.70;;;;;;5068874;28;20016;-42
2022/10/13 10:24:37;;;;;;;23.60;11.20;;;17.80;96.80;;;;;;5082225;28;20048;-44
2022/10/13 10:27:13;;;;;;;21.45;11.27;;;17.40;98.00;;;;;;5090080;28;20024;-42
2022/10/13 10:29:48;;;;;;;17.58;9.23;;;17.10;98.50;;;;;;5090065;28;20699;-43
2022/10/13 10:32:38;;;;;;;26.27;9.70;;;16.90;99.30;;;;;;5089611;28;20105;-43
2022/10/13 10:35:18;;;;;;;16.45;9.02;;;17.20;99.40;;;;;;5090291;28;20020;-42
2022/10/13 10:38:20;;;;;;;24.85;10.45;;;17.40;99.20;;;;;;5090063;28;20028;-42
2022/10/13 10:40:49;;;;;;;25.27;9.85;;;18.00;98.40;;;;;;5090758;28;20571;-43
2022/10/13 10:43:42;;;;;;;16.38;8.10;;;20.10;97.00;;;;;;5090681;28;20028;-43
2022/10/13 10:46:24;;;;;;;13.90;8.18;;;22.00;94.20;;;;;;5091354;28;20452;-46
2022/10/13 10:48:55;;;;;;;19.52;7.88;;;23.20;90.50;;;;;;5091046;28;20036;-43
2022/10/13 10:51:26;;;;;;;17.15;8.23;;;23.60;89.50;;;;;;5079664;28;20035;-42
2022/10/13 10:53:55;;;;;;;12.05;6.88;;;24.10;86.60;;;;;;5082048;28;20021;-43
2022/10/13 10:56:46;;;;;;;18.23;7.25;;;24.10;84.30;;;;;;5090834;28;20032;-42
2022/10/13 10:59:38;;;;;;;16.40;8.20;;;23.20;85.10;;;;;;5090773;28;20035;-42
2022/10/13 11:02:07;;;;;;;20.67;8.25;;;22.20;88.20;;;;;;5090565;28;20051;-43
2022/10/13 11:04:44;;;;;;;12.57;6.90;;;21.90;89.50;;;;;;5090886;28;20012;-42
2022/10/13 11:07:21;;;;;;;18.23;8.25;;;21.90;90.30;;;;;;5090357;28;20032;-42
2022/10/13 11:09:47;;;;;;;15.27;7.07;;;22.10;90.00;;;;;;5091156;28;20025;-42
2022/10/13 11:12:18;;;;;;;21.90;7.50;;;22.20;89.10;;;;;;5090276;28;20043;-44
2022/10/13 11:14:47;;;;;;;16.48;6.60;;;22.10;88.10;;;;;;5090711;28;20032;-43
2022/10/13 11:17:26;;;;;;;13.20;6.97;;;21.80;89.20;;;;;;5093751;27;20028;-43
2022/10/13 11:19:52;;;;;;;13.77;7.90;;;22.20;88.20;;;;;;5094386;28;20380;-45
2022/10/13 11:22:20;;;;;;;16.45;7.57;;;21.40;88.30;;;;;;5084601;28;20016;-42
2022/10/13 11:24:49;;;;;;;12.80;6.93;;;20.90;90.50;;;;;;5089216;28;20475;-44
2022/10/13 11:27:22;;;;;;;17.30;6.88;;;20.70;90.90;;;;;;5094577;28;20024;-42
2022/10/13 11:29:58;;;;;;;13.55;6.07;;;20.60;91.30;;;;;;5094615;28;20074;-42
2022/10/13 11:32:29;;;;;;;12.38;6.07;;;20.50;91.00;;;;;;5092560;28;20027;-42
2022/10/13 11:35:04;;;;;;;13.25;5.53;;;20.50;91.00;;;;;;5094611;28;20388;-44
2022/10/13 11:37:51;;;;;;;10.88;5.22;;;20.60;91.40;;;;;;5094171;28;20085;-44
2022/10/13 11:40:33;;;;;;;15.57;6.45;;;20.50;91.80;;;;;;5094460;28;20028;-42
2022/10/13 11:43:20;;;;;;;9.75;5.68;;;20.20;91.60;;;;;;5094030;28;20016;-43
2022/10/13 11:46:05;;;;;;;10.45;5.18;;;20.40;92.60;;;;;;5094426;28;20039;-42
2022/10/13 11:48:59;;;;;;;9.88;5.00;;;21.20;90.90;;;;;;5094383;28;20410;-42
2022/10/13 11:51:30;;;;;;;11.95;5.65;;;21.50;90.40;;;;;;5088234;28;20468;-42
2022/10/13 11:54:18;;;;;;;12.88;5.75;;;21.50;90.00;;;;;;5084220;28;20021;-43
2022/10/13 11:56:47;;;;;;;10.80;5.88;;;21.20;88.80;;;;;;5073676;28;20497;-42
2022/10/13 11:59:28;;;;;;;14.15;5.40;;;20.40;90.80;;;;;;5073713;28;20031;-42
2022/10/13 12:01:54;;;;;;;;;;;19.80;91.30;;;;;;5073850;28;20024;-44
2022/10/13 12:04:21;;;;;;;11.38;6.28;;;19.50;92.30;;;;;;5073697;28;19905;-42
2022/10/13 12:06:58;;;;;;;10.50;4.68;;;19.30;92.50;;;;;;5075599;28;20481;-43
2022/10/13 12:09:24;;;;;;;7.13;5.25;;;19.10;93.10;;;;;;5072758;28;20089;-42
2022/10/13 12:12:13;;;;;;;11.00;4.93;;;19.10;93.40;;;;;;5055439;28;20432;-42
2022/10/13 12:14:46;;;;;;;15.25;5.85;;;18.80;93.70;;;;;;5072671;28;20048;-42
2022/10/13 12:17:38;;;;;;;9.43;5.45;;;18.70;93.20;;;;;;5073381;28;20020;-43
2022/10/13 12:20:20;;;;;;;10.48;4.95;;;18.70;93.70;;;;;;5071439;28;20032;-41
2022/10/13 12:22:47;;;;;;;12.43;4.78;;;19.00;93.60;;;;;;5072834;28;20025;-42
2022/10/13 12:25:20;;;;;;;12.85;6.38;;;19.20;92.60;;;;;;5073207;28;20103;-44
2022/10/13 12:27:54;;;;;;;13.43;5.10;;;19.10;92.60;;;;;;5070444;28;20023;-46
2022/10/13 12:30:29;;;;;;;17.17;6.15;;;19.20;92.20;;;;;;5084978;28;20024;-45
2022/10/13 12:32:57;;;;;;;12.20;5.30;;;19.30;92.20;;;;;;5092862;28;20066;-46
2022/10/13 12:35:29;;;;;;;11.05;4.82;;;19.20;91.90;;;;;;5093321;28;20077;-44
2022/10/13 12:37:56;;;;;;;14.43;5.70;;;18.80;92.20;;;;;;5093457;28;20023;-44
2022/10/13 12:40:22;;;;;;;12.63;4.75;;;18.60;92.60;;;;;;5093222;28;20028;-41
2022/10/13 12:42:49;;;;;;;12.70;5.63;;;18.60;93.40;;;;;;5092577;28;20484;-42
2022/10/13 12:45:17;;;;;;;10.05;5.40;;;18.70;92.90;;;;;;5093514;28;20689;-41
2022/10/13 12:47:42;;;;;;;10.27;4.80;;;18.90;93.10;;;;;;5093362;28;20431;-43
2022/10/13 12:50:26;;;;;;;11.23;5.85;;;19.20;92.90;;;;;;5092840;28;20032;-43
2022/10/13 12:53:02;;;;;;;8.75;4.60;;;19.00;92.60;;;;;;5080434;28;20031;-41